sensor_id;sensor_type;location;lat;lon;timestamp;P1;durP1;ratioP1;P2;durP2;ratioP2
32086;SDS011;18602;51.722;8.732;2022-10-26T00:00:25;7.20;;;2.00;;
32086;SDS011;18602;51.722;8.732;2022-10-26T00:02:52;6.35;;;1.67;;
32086;SDS011;18602;51.722;8.732;2022-10-26T00:05:18;13.55;;;2.22;;
32086;SDS011;18602;51.722;8.732;2022-10-26T00:07:44;17.95;;;2.80;;
32086;SDS011;18602;51.722;8.732;2022-10-26T00:10:10;11.63;;;1.90;;
32086;SDS011;18602;51.722;8.732;2022-10-26T00:12:36;4.40;;;1.60;;
32086;SDS011;18602;51.722;8.732;2022-10-26T00:15:02;5.53;;;1.80;;
32086;SDS011;18602;51.722;8.732;2022-10-26T00:17:28;5.65;;;2.00;;
32086;SDS011;18602;51.722;8.732;2022-10-26T00:19:54;6.63;;;1.85;;
32086;SDS011;18602;51.722;8.732;2022-10-26T00:22:21;4.85;;;1.67;;
32086;SDS011;18602;51.722;8.732;2022-10-26T00:24:47;4.50;;;1.25;;
32086;SDS011;18602;51.722;8.732;2022-10-26T00:27:13;13.63;;;2.33;;
32086;SDS011;18602;51.722;8.732;2022-10-26T00:29:39;5.28;;;2.10;;
32086;SDS011;18602;51.722;8.732;2022-10-26T00:32:05;8.18;;;3.25;;
32086;SDS011;18602;51.722;8.732;2022-10-26T00:34:31;5.20;;;1.60;;
32086;SDS011;18602;51.722;8.732;2022-10-26T00:36:57;6.63;;;1.40;;
32086;SDS011;18602;51.722;8.732;2022-10-26T00:39:23;4.38;;;1.60;;
32086;SDS011;18602;51.722;8.732;2022-10-26T00:41:49;3.67;;;1.70;;
32086;SDS011;18602;51.722;8.732;2022-10-26T00:47:00;7.13;;;1.90;;
32086;SDS011;18602;51.722;8.732;2022-10-26T00:49:26;5.88;;;2.10;;
32086;SDS011;18602;51.722;8.732;2022-10-26T00:51:52;6.43;;;1.80;;
32086;SDS011;18602;51.722;8.732;2022-10-26T00:56:48;5.95;;;2.08;;
32086;SDS011;18602;51.722;8.732;2022-10-26T00:59:14;11.05;;;1.90;;
32086;SDS011;18602;51.722;8.732;2022-10-26T01:01:42;8.52;;;1.88;;
32086;SDS011;18602;51.722;8.732;2022-10-26T01:04:09;4.70;;;1.70;;
32086;SDS011;18602;51.722;8.732;2022-10-26T01:06:35;5.28;;;1.50;;
32086;SDS011;18602;51.722;8.732;2022-10-26T01:09:02;2.67;;;1.77;;
32086;SDS011;18602;51.722;8.732;2022-10-26T01:13:54;4.32;;;2.15;;
32086;SDS011;18602;51.722;8.732;2022-10-26T01:19:16;7.28;;;2.95;;
32086;SDS011;18602;51.722;8.732;2022-10-26T01:25:23;9.45;;;4.18;;
32086;SDS011;18602;51.722;8.732;2022-10-26T01:37:32;12.23;;;5.18;;
32086;SDS011;18602;51.722;8.732;2022-10-26T01:40:08;14.95;;;5.90;;
32086;SDS011;18602;51.722;8.732;2022-10-26T01:42:36;12.98;;;6.32;;
32086;SDS011;18602;51.722;8.732;2022-10-26T01:45:05;13.63;;;5.38;;
32086;SDS011;18602;51.722;8.732;2022-10-26T01:47:32;19.00;;;5.97;;
32086;SDS011;18602;51.722;8.732;2022-10-26T01:49:59;13.65;;;5.50;;
32086;SDS011;18602;51.722;8.732;2022-10-26T01:52:25;13.32;;;6.35;;
32086;SDS011;18602;51.722;8.732;2022-10-26T01:54:59;12.63;;;6.32;;
32086;SDS011;18602;51.722;8.732;2022-10-26T01:57:25;13.02;;;6.65;;
32086;SDS011;18602;51.722;8.732;2022-10-26T02:08:20;13.10;;;5.78;;
32086;SDS011;18602;51.722;8.732;2022-10-26T02:10:53;17.85;;;6.53;;
32086;SDS011;18602;51.722;8.732;2022-10-26T02:18:18;11.38;;;6.25;;
32086;SDS011;18602;51.722;8.732;2022-10-26T02:20:49;22.63;;;6.07;;
32086;SDS011;18602;51.722;8.732;2022-10-26T02:23:16;14.63;;;5.90;;
32086;SDS011;18602;51.722;8.732;2022-10-26T02:25:46;21.48;;;6.88;;
32086;SDS011;18602;51.722;8.732;2022-10-26T02:28:15;18.05;;;5.95;;
32086;SDS011;18602;51.722;8.732;2022-10-26T02:30:42;12.73;;;6.20;;
32086;SDS011;18602;51.722;8.732;2022-10-26T02:33:09;14.88;;;5.90;;
32086;SDS011;18602;51.722;8.732;2022-10-26T02:35:36;13.38;;;6.32;;
32086;SDS011;18602;51.722;8.732;2022-10-26T02:38:04;14.65;;;5.75;;
32086;SDS011;18602;51.722;8.732;2022-10-26T02:40:32;13.35;;;6.32;;
32086;SDS011;18602;51.722;8.732;2022-10-26T02:43:00;12.88;;;6.00;;
32086;SDS011;18602;51.722;8.732;2022-10-26T02:45:29;10.95;;;5.97;;
32086;SDS011;18602;51.722;8.732;2022-10-26T02:47:56;13.63;;;5.47;;
